Time;durP1;ratioP1;P1;durP2;ratioP2;P2;SDS_P1;SDS_P2;PMS_P1;PMS_P2;Temp;Humidity;BMP_temperature;BMP_pressure;BME280_temperature;BME280_humidity;BME280_pressure;Samples;Min_cycle;Max_cycle;Signal;HPM_P1;HPM_P2
2021/03/29 00:02:02;;;;;;;15.05;6.45;;;;;;;23.16;14.66;99528.84;5089587;28;20037;-88
2021/03/29 00:04:28;;;;;;;15.00;5.55;;;;;;;23.22;14.37;99530.06;5088319;28;20092;-88
2021/03/29 00:06:57;;;;;;;14.10;5.07;;;;;;;23.30;14.34;99526.09;5085806;28;20064;-88
2021/03/29 00:09:25;;;;;;;14.50;5.68;;;;;;;23.14;14.54;99530.44;5091611;28;20032;-87
2021/03/29 00:11:54;;;;;;;10.80;4.93;;;;;;;22.80;14.76;99535.41;5092288;28;20408;-87
2021/03/29 00:14:22;;;;;;;13.60;4.90;;;;;;;22.75;14.94;99524.63;5037127;28;20033;-87
2021/03/29 00:16:49;;;;;;;13.43;5.18;;;;;;;22.78;14.98;99526.63;5067591;28;20461;-87
2021/03/29 00:19:16;;;;;;;10.32;4.28;;;;;;;22.55;15.01;99535.22;5045809;28;20028;-87
2021/03/29 00:21:42;;;;;;;13.23;4.88;;;;;;;22.52;15.08;99526.81;5069867;28;20503;-87
2021/03/29 00:24:08;;;;;;;13.27;4.40;;;;;;;22.80;15.01;99532.63;5073663;28;20039;-87
2021/03/29 00:26:38;;;;;;;12.57;4.55;;;;;;;22.91;14.84;99527.09;5060173;28;20485;-86
2021/03/29 00:29:05;;;;;;;11.98;5.00;;;;;;;23.27;14.64;99534.47;5059005;28;20177;-87
2021/03/29 00:31:32;;;;;;;13.45;5.28;;;;;;;23.00;14.69;99536.75;5065172;28;20099;-86
2021/03/29 00:34:00;;;;;;;12.27;5.05;;;;;;;23.18;14.41;99532.03;5058377;28;20401;-86
2021/03/29 00:36:27;;;;;;;12.88;5.25;;;;;;;23.26;14.76;99539.31;5042543;28;20021;-87
2021/03/29 00:38:55;;;;;;;11.82;4.20;;;;;;;23.09;14.87;99536.41;5059831;28;20033;-87
2021/03/29 00:41:23;;;;;;;10.75;4.72;;;;;;;23.33;14.52;99550.53;5056929;28;20795;-86
2021/03/29 00:43:51;;;;;;;15.57;5.20;;;;;;;23.56;14.15;99541.84;5057102;28;20091;-86
2021/03/29 00:46:19;;;;;;;12.18;5.32;;;;;;;23.48;14.36;99551.41;5060721;28;20037;-86
2021/03/29 00:48:49;;;;;;;11.50;4.65;;;;;;;23.44;14.07;99544.19;5064517;28;20024;-86
2021/03/29 00:51:22;;;;;;;12.98;5.07;;;;;;;23.24;14.55;99538.88;5057444;28;20045;-86
2021/03/29 00:53:51;;;;;;;12.02;4.57;;;;;;;23.17;14.59;99546.47;5038088;28;20036;-87
2021/03/29 00:56:19;;;;;;;10.10;4.65;;;;;;;23.33;14.27;99544.13;5057262;28;20033;-87
2021/03/29 00:58:48;;;;;;;13.20;5.05;;;;;;;23.43;14.23;99542.59;5057073;28;20096;-87
2021/03/29 01:01:17;;;;;;;10.55;5.50;;;;;;;23.29;14.43;99549.72;5065177;28;20035;-88
2021/03/29 01:03:47;;;;;;;11.27;4.68;;;;;;;23.49;14.27;99557.84;5062737;28;20088;-87
2021/03/29 01:06:18;;;;;;;12.63;4.90;;;;;;;23.58;14.18;99552.66;5062679;28;20025;-87
2021/03/29 01:08:47;;;;;;;;;;;;;;;23.33;14.57;99550.53;5066881;28;20400;-87
2021/03/29 01:11:16;;;;;;;10.35;4.38;;;;;;;23.38;14.18;99558.59;5050610;28;19920;-88
2021/03/29 01:13:57;;;;;;;13.52;4.22;;;;;;;23.64;14.24;99553.91;5081902;28;20090;-87
2021/03/29 01:16:25;;;;;;;;;;;;;;;23.54;14.53;99551.84;5079560;28;20087;-87
2021/03/29 01:18:55;;;;;;;11.60;4.30;;;;;;;23.57;14.27;99553.88;5087762;28;20007;-87
2021/03/29 01:21:49;;;;;;;9.02;4.28;;;;;;;23.32;14.39;99554.53;5081069;28;20061;-87
2021/03/29 01:24:39;;;;;;;8.65;3.55;;;;;;;23.49;14.25;99555.03;5077200;28;20017;-87
2021/03/29 01:27:06;;;;;;;11.93;3.63;;;;;;;23.64;14.06;99551.88;5082234;28;20024;-87
2021/03/29 01:29:32;;;;;;;9.23;3.95;;;;;;;23.48;14.22;99554.22;5068091;28;20028;-87
2021/03/29 01:32:01;;;;;;;8.85;4.00;;;;;;;23.57;14.37;99551.06;5080007;28;20036;-87
2021/03/29 01:34:29;;;;;;;13.32;4.55;;;;;;;23.39;14.14;99553.78;5092330;28;20518;-87
2021/03/29 01:36:57;;;;;;;10.15;4.38;;;;;;;23.57;14.37;99554.66;5076205;28;20040;-87
2021/03/29 01:39:24;;;;;;;11.13;4.20;;;;;;;23.57;14.34;99557.47;5078216;28;20032;-87
2021/03/29 01:41:50;;;;;;;10.38;4.25;;;;;;;23.47;14.54;99549.00;5081811;28;20436;-87
2021/03/29 01:44:18;;;;;;;8.88;3.60;;;;;;;23.36;14.55;99549.00;5078024;28;20043;-87
2021/03/29 01:46:44;;;;;;;8.77;4.15;;;;;;;23.38;14.51;99545.78;5076229;28;20435;-87
2021/03/29 01:49:11;;;;;;;11.20;4.10;;;;;;;23.46;14.27;99556.63;5088547;28;20093;-87
2021/03/29 01:51:38;;;;;;;8.55;3.85;;;;;;;23.55;14.03;99551.44;5070732;28;20040;-88
2021/03/29 01:54:05;;;;;;;7.60;3.47;;;;;;;23.68;14.24;99551.91;5074735;28;20345;-87
2021/03/29 01:56:31;;;;;;;9.07;3.33;;;;;;;23.69;14.21;99556.28;5075305;28;20044;-87
2021/03/29 01:58:57;;;;;;;11.68;4.55;;;;;;;23.81;14.23;99547.50;5080619;28;20063;-86
2021/03/29 02:01:24;;;;;;;9.32;3.78;;;;;;;23.91;13.96;99557.97;5075493;28;20115;-86
2021/03/29 02:03:50;;;;;;;9.10;3.90;;;;;;;23.84;13.93;99547.53;5086927;28;20028;-86
2021/03/29 02:06:17;;;;;;;8.85;3.88;;;;;;;23.79;14.22;99538.69;5078267;28;20035;-86
2021/03/29 02:08:44;;;;;;;6.25;2.97;;;;;;;23.80;14.09;99537.50;5085561;28;20094;-86
2021/03/29 02:11:11;;;;;;;10.95;3.67;;;;;;;24.01;14.11;99540.34;5081515;28;20373;-86
2021/03/29 02:13:47;;;;;;;9.68;3.35;;;;;;;23.78;14.25;99537.88;5088337;28;20063;-86
2021/03/29 02:16:15;;;;;;;7.32;2.95;;;;;;;23.47;14.38;99544.22;5092545;28;20387;-86
2021/03/29 02:18:56;;;;;;;8.55;3.28;;;;;;;23.47;14.40;99535.81;5077595;28;20097;-86
2021/03/29 02:21:32;;;;;;;8.85;3.08;;;;;;;23.19;14.59;99541.25;5082292;28;20028;-86
2021/03/29 02:23:59;;;;;;;9.93;3.10;;;;;;;23.06;14.75;99531.56;5074182;28;20036;-86
2021/03/29 02:26:30;;;;;;;8.35;3.00;;;;;;;23.19;14.59;99533.66;5080646;28;20515;-86
2021/03/29 02:28:58;;;;;;;9.45;3.30;;;;;;;23.35;14.41;99536.16;5059128;28;20485;-86
2021/03/29 02:31:26;;;;;;;9.52;2.83;;;;;;;22.88;15.08;99530.69;5068284;28;20075;-86
2021/03/29 02:33:54;;;;;;;9.65;3.80;;;;;;;22.66;15.14;99538.94;5076220;28;20048;-86
2021/03/29 02:36:21;;;;;;;8.52;3.05;;;;;;;22.80;15.04;99537.44;5081531;28;20035;-86
2021/03/29 02:38:49;;;;;;;5.80;2.85;;;;;;;22.69;15.28;99545.75;5084844;28;20028;-86
2021/03/29 02:41:17;;;;;;;9.35;3.05;;;;;;;22.32;15.74;99534.66;5079238;28;20119;-86
2021/03/29 02:43:47;;;;;;;11.70;5.85;;;;;;;22.68;15.35;99541.38;5085521;28;20047;-86
2021/03/29 02:46:14;;;;;;;7.22;3.42;;;;;;;22.65;15.55;99531.75;5072747;28;20553;-85
2021/03/29 02:48:44;;;;;;;12.68;5.60;;;;;;;22.66;15.37;99524.94;5080424;28;20025;-85
2021/03/29 02:51:13;;;;;;;13.20;4.20;;;;;;;22.78;15.42;99531.44;5071555;28;20025;-86
2021/03/29 02:53:48;;;;;;;8.50;3.22;;;;;;;22.99;15.32;99523.94;5075587;28;20032;-86
2021/03/29 02:56:29;;;;;;;7.18;2.97;;;;;;;22.64;15.54;99532.13;5086814;28;20102;-87
2021/03/29 02:59:03;;;;;;;;;;;;;;;22.35;16.18;99528.28;5083916;28;20059;-87
2021/03/29 03:01:33;;;;;;;11.63;3.65;;;;;;;22.82;15.72;99535.06;5077243;28;19916;-87
2021/03/29 03:04:00;;;;;;;7.00;3.33;;;;;;;23.14;15.33;99534.03;5083963;28;20036;-87
2021/03/29 03:06:30;;;;;;;10.18;3.05;;;;;;;23.52;15.00;99535.44;5083228;28;20024;-87
2021/03/29 03:09:00;;;;;;;8.25;3.42;;;;;;;23.96;14.54;99533.13;5079302;28;20020;-87
2021/03/29 03:11:26;;;;;;;8.07;2.80;;;;;;;23.99;14.76;99542.75;5080322;28;20093;-86
2021/03/29 03:13:54;;;;;;;9.70;3.00;;;;;;;23.95;14.79;99541.94;5097327;28;20487;-87
2021/03/29 03:16:20;;;;;;;8.45;2.97;;;;;;;24.15;14.48;99543.22;5097842;28;20032;-87
2021/03/29 03:18:50;;;;;;;5.85;2.88;;;;;;;24.33;14.44;99544.03;5095166;28;20020;-87
2021/03/29 03:21:20;;;;;;;6.03;3.13;;;;;;;24.43;14.22;99546.03;5099712;28;20035;-87
2021/03/29 03:23:57;;;;;;;8.30;2.67;;;;;;;24.32;14.33;99544.44;5083514;28;20558;-86
2021/03/29 03:26:26;;;;;;;4.93;2.50;;;;;;;24.30;14.65;99544.00;5099165;28;20340;-87
2021/03/29 03:28:52;;;;;;;8.88;3.10;;;;;;;24.33;14.70;99548.81;5075766;28;20449;-87
2021/03/29 03:31:20;;;;;;;9.77;2.80;;;;;;;24.35;14.36;99544.41;5098317;28;20023;-87
2021/03/29 03:33:46;;;;;;;7.28;2.72;;;;;;;24.30;14.78;99549.63;5101778;28;20445;-87
2021/03/29 03:36:14;;;;;;;6.80;2.83;;;;;;;24.11;14.88;99542.38;5094336;28;20036;-87
2021/03/29 03:38:43;;;;;;;8.07;3.03;;;;;;;24.32;14.78;99544.44;5096976;28;20032;-87
2021/03/29 03:41:13;;;;;;;6.82;2.75;;;;;;;24.64;14.25;99546.00;5086957;28;20051;-87
2021/03/29 03:43:49;;;;;;;7.22;3.15;;;;;;;24.80;14.25;99545.63;5083878;28;20098;-87
2021/03/29 03:46:22;;;;;;;8.65;3.75;;;;;;;24.70;14.31;99538.78;5092558;28;20085;-87
2021/03/29 03:48:49;;;;;;;6.85;2.67;;;;;;;24.97;14.16;99539.16;5101646;28;20357;-87
2021/03/29 03:51:16;;;;;;;8.15;3.28;;;;;;;25.07;13.98;99541.13;5109663;28;20032;-87
2021/03/29 03:53:43;;;;;;;5.90;2.90;;;;;;;25.13;14.18;99542.34;5100127;28;20063;-87
2021/03/29 03:56:10;;;;;;;5.55;2.35;;;;;;;25.18;14.15;99541.91;5106740;28;20036;-87
2021/03/29 03:58:37;;;;;;;4.53;2.03;;;;;;;24.81;14.63;99533.16;5096760;28;20032;-87
2021/03/29 04:01:06;;;;;;;6.60;2.85;;;;;;;24.82;14.47;99546.03;5094473;28;20085;-87
2021/03/29 04:03:32;;;;;;;5.57;2.60;;;;;;;24.98;14.24;99542.78;5096564;28;20036;-87
2021/03/29 04:05:58;;;;;;;8.65;2.65;;;;;;;24.88;14.17;99535.97;5095032;28;20039;-86
2021/03/29 04:08:25;;;;;;;6.47;2.88;;;;;;;24.84;14.45;99542.78;5082512;28;20066;-86
2021/03/29 04:10:55;;;;;;;7.78;2.90;;;;;;;24.79;14.56;99546.81;5093633;28;20041;-86
2021/03/29 04:13:27;;;;;;;6.57;2.38;;;;;;;24.74;14.54;99547.19;5091127;28;20047;-86
2021/03/29 04:15:54;;;;;;;5.22;2.67;;;;;;;24.86;14.59;99546.00;5083084;28;20036;-86
2021/03/29 04:18:20;;;;;;;6.53;2.60;;;;;;;24.71;14.64;99542.41;5095893;28;20036;-86
2021/03/29 04:20:47;;;;;;;7.85;2.50;;;;;;;24.89;14.50;99548.81;5095924;28;20051;-86
2021/03/29 04:23:14;;;;;;;4.47;2.40;;;;;;;25.02;14.71;99552.00;5081495;28;20039;-86
2021/03/29 04:25:41;;;;;;;7.53;2.42;;;;;;;25.07;14.72;99554.38;5093707;28;20047;-86
2021/03/29 04:28:07;;;;;;;5.97;2.55;;;;;;;25.19;14.45;99559.56;5094153;28;20032;-86
2021/03/29 04:30:34;;;;;;;8.30;2.67;;;;;;;25.15;14.18;99561.59;5095315;28;20115;-88
2021/03/29 04:33:00;;;;;;;7.57;2.78;;;;;;;25.29;14.07;99559.56;5093072;28;20040;-88
2021/03/29 04:35:26;;;;;;;6.15;2.40;;;;;;;25.25;13.78;99567.19;5086687;28;20028;-88
2021/03/29 04:37:54;;;;;;;6.55;2.78;;;;;;;25.33;13.71;99560.34;5085841;28;20071;-88
2021/03/29 04:40:22;;;;;;;6.45;2.28;;;;;;;25.03;14.20;99565.66;5082808;28;20032;-87
2021/03/29 04:42:49;;;;;;;4.38;2.60;;;;;;;25.08;14.45;99559.63;5093706;28;20390;-88
2021/03/29 04:45:16;;;;;;;4.10;1.95;;;;;;;25.26;14.06;99565.19;5092975;28;20112;-88
2021/03/29 04:47:43;;;;;;;5.75;2.35;;;;;;;25.20;14.47;99562.00;5091874;28;20515;-88
2021/03/29 04:50:10;;;;;;;7.43;2.42;;;;;;;25.16;14.53;99569.63;5094240;28;20046;-88
2021/03/29 04:52:36;;;;;;;2.67;1.63;;;;;;;24.95;14.53;99569.66;5094479;28;20114;-89
2021/03/29 04:55:04;;;;;;;6.05;2.15;;;;;;;25.21;14.55;99572.03;5091644;28;20036;-88
2021/03/29 04:57:30;;;;;;;4.65;2.05;;;;;;;25.32;14.36;99574.81;5091427;28;20035;-88
2021/03/29 04:59:56;;;;;;;6.53;2.70;;;;;;;25.45;14.10;99578.00;5090592;28;20032;-88
2021/03/29 05:02:22;;;;;;;6.93;2.60;;;;;;;25.36;14.08;99581.22;5084625;28;20544;-88
2021/03/29 05:04:48;;;;;;;5.40;2.17;;;;;;;25.03;14.52;99579.69;5087121;28;20028;-89
2021/03/29 05:07:14;;;;;;;6.65;2.38;;;;;;;25.05;14.86;99585.72;5090575;28;20475;-88
2021/03/29 05:09:41;;;;;;;4.53;2.53;;;;;;;25.16;14.62;99594.09;5078233;28;20501;-89
2021/03/29 05:12:10;;;;;;;6.95;2.47;;;;;;;25.23;14.45;99592.09;5082994;28;20052;-88
2021/03/29 05:14:38;;;;;;;6.97;2.95;;;;;;;25.24;14.51;99585.28;5066894;28;20507;-89
2021/03/29 05:17:05;;;;;;;9.05;2.50;;;;;;;25.58;14.19;99591.19;5066810;28;20028;-89
2021/03/29 05:19:31;;;;;;;10.02;2.97;;;;;;;25.37;14.29;99591.25;5070621;28;20052;-89
2021/03/29 05:21:59;;;;;;;6.03;2.65;;;;;;;25.18;14.65;99584.06;5072931;28;20025;-89
2021/03/29 05:24:25;;;;;;;7.60;3.08;;;;;;;25.55;14.65;99579.97;5063030;28;20071;-88
2021/03/29 05:26:52;;;;;;;4.82;2.60;;;;;;;25.99;14.10;99580.16;5074319;28;20052;-88
2021/03/29 05:29:19;;;;;;;9.40;2.97;;;;;;;26.42;13.92;99581.47;5069134;28;20074;-88
2021/03/29 05:31:45;;;;;;;6.35;2.80;;;;;;;26.30;14.18;99578.38;5058633;28;20443;-89
2021/03/29 05:34:14;;;;;;;5.30;2.45;;;;;;;26.05;14.44;99582.13;5066069;28;20067;-88
2021/03/29 05:36:41;;;;;;;6.55;2.63;;;;;;;25.96;14.79;99578.16;5062268;28;20041;-88
2021/03/29 05:39:10;;;;;;;5.43;2.15;;;;;;;25.71;16.26;99588.75;5066853;28;20029;-86
2021/03/29 05:41:40;;;;;;;6.72;3.03;;;;;;;26.05;15.41;99586.94;5055436;28;20392;-88
2021/03/29 05:44:08;;;;;;;9.07;4.00;;;;;;;25.75;14.95;99589.50;5069926;28;20032;-86
2021/03/29 05:46:42;;;;;;;6.40;2.75;;;;;;;25.89;14.92;99581.81;5058062;28;20024;-85
2021/03/29 05:49:09;;;;;;;7.45;2.90;;;;;;;25.79;15.75;99573.44;5064378;28;20095;-87
2021/03/29 05:51:39;;;;;;;7.63;3.42;;;;;;;25.68;15.11;99575.47;5066929;28;20450;-88
2021/03/29 05:54:07;;;;;;;6.07;2.72;;;;;;;26.03;15.50;99581.72;5069746;28;20037;-85
2021/03/29 05:56:39;;;;;;;5.82;2.78;;;;;;;25.82;15.54;99589.47;5069338;28;20032;-88
2021/03/29 05:59:23;;;;;;;6.25;3.03;;;;;;;25.53;15.52;99591.66;5063666;28;20033;-88
2021/03/29 06:01:54;;;;;;;11.15;4.88;;;;;;;24.86;17.02;99585.34;5070305;28;20107;-88
2021/03/29 06:04:42;;;;;;;4.07;2.55;;;;;;;24.93;16.42;99597.38;5068135;28;20067;-89
2021/03/29 06:07:21;;;;;;;6.50;2.53;;;;;;;25.45;16.04;99603.31;5061991;28;20090;-89
2021/03/29 06:09:50;;;;;;;8.82;2.58;;;;;;;25.83;15.62;99594.72;5059435;28;20035;-89
2021/03/29 06:12:18;;;;;;;4.60;2.42;;;;;;;26.58;15.13;99589.41;5067337;28;20785;-88
2021/03/29 06:14:58;;;;;;;7.05;2.92;;;;;;;26.55;14.83;99612.78;5086042;28;20032;-88
2021/03/29 06:17:24;;;;;;;8.63;3.00;;;;;;;26.82;14.35;99596.06;5087050;28;20395;-89
2021/03/29 06:19:59;;;;;;;6.25;2.65;;;;;;;26.92;14.73;99598.81;5078506;28;20031;-89
2021/03/29 06:22:32;;;;;;;5.45;2.95;;;;;;;27.26;14.78;99590.38;5086008;28;20040;-89
2021/03/29 06:25:12;;;;;;;5.97;2.75;;;;;;;27.47;14.34;99592.22;5080809;28;20036;-89
2021/03/29 06:27:56;;;;;;;4.78;2.80;;;;;;;27.32;14.84;99597.19;5090271;28;20560;-89
2021/03/29 06:30:26;;;;;;;7.88;2.92;;;;;;;27.61;14.72;99598.47;5079447;28;20047;-89
2021/03/29 06:33:07;;;;;;;5.10;3.10;;;;;;;27.32;15.13;99585.91;5054782;28;20480;-88
2021/03/29 06:35:36;;;;;;;;;;;;;;;27.42;15.30;99582.19;5078984;28;20086;-89
2021/03/29 06:38:04;;;;;;;5.57;3.33;;;;;;;27.80;14.19;99585.72;5072596;28;20379;-89
2021/03/29 06:40:31;;;;;;;6.70;3.40;;;;;;;26.98;14.70;99588.66;5077858;28;20036;-89
2021/03/29 06:42:57;;;;;;;6.63;3.10;;;;;;;26.76;15.13;99586.47;5083492;28;20083;-89
2021/03/29 06:45:23;;;;;;;5.65;3.58;;;;;;;26.67;15.56;99592.56;5076692;28;20040;-89
2021/03/29 06:47:49;;;;;;;8.85;3.00;;;;;;;26.83;15.56;99590.03;5044350;28;20032;-89
2021/03/29 06:50:26;;;;;;;6.25;2.92;;;;;;;26.93;15.55;99593.97;5082749;28;20031;-89
2021/03/29 06:52:52;;;;;;;5.93;2.60;;;;;;;26.98;15.83;99596.34;5083232;28;20039;-89
2021/03/29 06:55:26;;;;;;;6.18;3.25;;;;;;;27.40;15.29;99588.22;5083112;28;20033;-89
2021/03/29 06:58:02;;;;;;;5.95;2.75;;;;;;;27.54;15.39;99592.13;5075242;28;20385;-89
2021/03/29 07:00:37;;;;;;;6.95;3.38;;;;;;;27.68;15.28;99589.91;5062395;28;20029;-90
2021/03/29 07:03:06;;;;;;;6.25;2.70;;;;;;;28.10;15.06;99590.59;5078743;28;20399;-89
2021/03/29 07:05:33;;;;;;;4.57;2.45;;;;;;;27.56;15.52;99584.03;5081665;28;20040;-89
2021/03/29 07:08:05;;;;;;;6.35;3.30;;;;;;;27.10;15.57;99581.69;5084297;28;20032;-90
2021/03/29 07:10:31;;;;;;;4.78;2.90;;;;;;;26.80;15.69;99584.41;5072805;28;20028;-90
2021/03/29 07:12:58;;;;;;;7.97;4.20;;;;;;;26.51;16.06;99579.00;5076024;28;20052;-89
2021/03/29 07:15:25;;;;;;;7.38;3.13;;;;;;;27.13;15.73;99576.03;5058742;28;20025;-90
2021/03/29 07:17:52;;;;;;;5.30;2.88;;;;;;;26.67;16.02;99575.66;5065925;28;20021;-90
2021/03/29 07:20:26;;;;;;;7.85;3.40;;;;;;;27.16;15.97;99574.41;5072764;28;20032;-90
2021/03/29 07:22:54;;;;;;;7.25;3.45;;;;;;;27.33;15.61;99579.03;5054075;28;20033;-90
2021/03/29 07:25:22;;;;;;;6.35;3.20;;;;;;;27.31;15.71;99582.28;5072962;28;20552;-89
2021/03/29 07:27:53;;;;;;;6.47;2.53;;;;;;;27.71;15.49;99582.63;5055447;28;20021;-89
2021/03/29 07:30:44;;;;;;;5.47;2.17;;;;;;;28.00;14.90;99589.53;5066404;28;20021;-90
2021/03/29 07:33:11;;;;;;;5.75;2.85;;;;;;;28.17;14.79;99587.69;5071944;28;20043;-91
2021/03/29 07:35:52;;;;;;;5.07;2.40;;;;;;;28.29;14.54;99589.88;5035991;28;20115;-90
2021/03/29 07:38:20;;;;;;;5.90;2.88;;;;;;;28.64;14.72;99590.16;5064713;28;20037;-90
2021/03/29 07:40:52;;;;;;;6.78;2.38;;;;;;;28.91;14.63;99592.94;5065902;28;20036;-89
2021/03/29 07:43:23;;;;;;;5.40;2.90;;;;;;;28.82;14.66;99592.69;5033803;28;20037;-90
2021/03/29 07:46:03;;;;;;;7.90;3.20;;;;;;;28.86;14.46;99596.25;5063583;28;20096;-90
2021/03/29 07:48:37;;;;;;;6.13;3.58;;;;;;;28.68;14.90;99601.44;5061998;28;20029;-90
2021/03/29 07:51:12;;;;;;;7.78;4.32;;;;;;;28.54;14.57;99604.44;5064417;28;20021;-90
2021/03/29 07:53:50;;;;;;;7.25;3.70;;;;;;;28.69;15.11;99597.34;5051283;28;20115;-89
2021/03/29 07:56:34;;;;;;;8.07;4.53;;;;;;;29.18;14.42;99607.00;5059218;28;20036;-90
2021/03/29 07:59:02;;;;;;;8.18;4.03;;;;;;;29.73;14.68;99598.66;5063742;28;20029;-90
2021/03/29 08:01:28;;;;;;;11.07;5.93;;;;;;;29.59;14.26;99598.13;5055856;28;20373;-89
2021/03/29 08:03:58;;;;;;;8.20;4.20;;;;;;;29.50;14.66;99598.69;5062858;28;20036;-89
2021/03/29 08:06:47;;;;;;;9.98;4.30;;;;;;;29.79;14.54;99596.91;5061720;28;20074;-90
2021/03/29 08:09:20;;;;;;;7.80;3.97;;;;;;;30.31;14.44;99596.16;5066989;28;20029;-90
2021/03/29 08:12:02;;;;;;;5.70;2.85;;;;;;;30.52;14.51;99598.53;5061233;28;20116;-90
2021/03/29 08:14:32;;;;;;;5.72;3.58;;;;;;;30.70;13.44;99598.88;5069276;28;20025;-90
2021/03/29 08:17:19;;;;;;;7.45;3.28;;;;;;;30.67;14.74;99596.91;5064687;28;20032;-90
2021/03/29 08:20:06;;;;;;;4.70;2.47;;;;;;;30.87;14.10;99606.16;5031085;28;20080;-90
2021/03/29 08:22:32;;;;;;;6.40;3.33;;;;;;;31.14;13.98;99589.63;5060997;28;20040;-90
2021/03/29 08:24:59;;;;;;;4.32;2.10;;;;;;;31.24;14.30;99582.88;5065586;28;20500;-90
2021/03/29 08:27:29;;;;;;;4.72;2.78;;;;;;;31.30;13.87;99589.59;5066634;28;20032;-90
2021/03/29 08:30:10;;;;;;;3.55;2.17;;;;;;;31.29;14.07;99590.84;5071896;28;20171;-90
2021/03/29 08:32:37;;;;;;;8.85;3.72;;;;;;;31.08;13.97;99591.44;5071237;28;20032;-90
2021/03/29 08:35:13;;;;;;;15.07;8.57;;;;;;;30.94;14.48;99596.69;5072469;28;20041;-90
2021/03/29 08:37:46;;;;;;;10.07;5.05;;;;;;;30.80;14.10;99594.97;5060063;28;20078;-91
2021/03/29 08:40:15;;;;;;;51.58;22.58;;;;;;;30.48;14.74;99607.09;5063221;28;20032;-90
2021/03/29 08:42:44;;;;;;;57.38;27.05;;;;;;;30.69;15.08;99606.56;5066797;28;20033;-90
2021/03/29 08:45:16;;;;;;;22.35;10.60;;;;;;;30.99;14.57;99604.66;5067828;28;20029;-90
2021/03/29 08:47:45;;;;;;;26.90;12.05;;;;;;;31.01;14.44;99602.16;5064638;28;20086;-90
2021/03/29 08:50:17;;;;;;;30.85;13.38;;;;;;;30.67;14.29;99609.06;5066484;28;20025;-90
2021/03/29 08:52:50;;;;;;;18.90;9.30;;;;;;;30.63;15.11;99608.38;5062597;28;20057;-91
2021/03/29 08:55:20;;;;;;;15.98;7.00;;;;;;;30.49;14.87;99602.22;5070120;28;20103;-90
2021/03/29 08:57:48;;;;;;;12.07;6.13;;;;;;;30.64;14.58;99595.00;5068510;28;20131;-90
2021/03/29 09:00:18;;;;;;;6.97;3.58;;;;;;;30.58;14.87;99602.41;5065630;28;20454;-90
2021/03/29 09:02:44;;;;;;;6.07;3.00;;;;;;;30.60;14.68;99600.72;5047783;28;20878;-91
2021/03/29 09:05:13;;;;;;;5.25;2.60;;;;;;;30.31;14.55;99602.63;5074125;28;20064;-90
2021/03/29 09:07:42;;;;;;;5.60;1.90;;;;;;;30.62;14.91;99588.97;5071070;28;20392;-90
2021/03/29 09:10:31;;;;;;;4.68;1.77;;;;;;;30.76;14.80;99597.09;5064775;28;20033;-90
2021/03/29 09:13:02;;;;;;;4.32;2.45;;;;;;;30.66;14.59;99593.31;5057408;28;20045;-90
2021/03/29 09:15:32;;;;;;;2.58;1.80;;;;;;;30.42;14.55;99594.69;5071331;28;20051;-90
2021/03/29 09:18:05;;;;;;;4.70;1.30;;;;;;;30.55;14.66;99592.75;5064507;28;20059;-90
2021/03/29 09:20:53;;;;;;;3.95;1.60;;;;;;;30.48;14.65;99592.94;5063100;28;20388;-91
2021/03/29 09:23:33;;;;;;;3.42;1.75;;;;;;;30.74;14.23;99608.09;5069812;28;20543;-91
2021/03/29 09:26:01;;;;;;;3.05;1.30;;;;;;;30.71;14.09;99609.00;5046400;28;20040;-91
2021/03/29 09:31:24;;;;;;;3.78;1.52;;;;;;;30.92;13.88;99596.34;5055633;28;20411;-91
2021/03/29 09:33:52;;;;;;;1.70;1.20;;;;;;;30.97;14.47;99596.56;5064837;28;20039;-91
2021/03/29 09:36:23;;;;;;;3.47;1.65;;;;;;;31.27;14.49;99603.91;5061905;28;20032;-91
2021/03/29 09:38:58;;;;;;;6.32;4.00;;;;;;;31.11;13.65;99603.94;5051859;28;20033;-91
2021/03/29 09:41:31;;;;;;;4.28;2.05;;;;;;;31.20;13.73;99592.75;5045225;28;20055;-91
2021/03/29 09:44:04;;;;;;;3.05;1.40;;;;;;;31.22;13.80;99595.94;5062064;28;20041;-92
2021/03/29 09:46:33;;;;;;;1.92;1.10;;;;;;;31.46;13.96;99600.13;5058337;28;20550;-91
2021/03/29 09:49:06;;;;;;;2.55;1.30;;;;;;;31.11;14.28;99599.03;5065462;28;20090;-92
2021/03/29 09:51:33;;;;;;;3.67;1.75;;;;;;;31.12;14.18;99594.16;5043250;28;20033;-92
2021/03/29 09:53:59;;;;;;;3.70;1.13;;;;;;;31.03;14.13;99597.66;5045330;28;20041;-92
2021/03/29 09:56:30;;;;;;;2.35;1.65;;;;;;;30.99;14.35;99596.94;5053788;28;20033;-92
2021/03/29 09:58:57;;;;;;;4.43;1.92;;;;;;;31.43;14.43;99586.84;5063068;28;20037;-93
2021/03/29 10:01:27;;;;;;;2.55;1.60;;;;;;;31.63;14.31;99589.50;5059349;28;20444;-91
2021/03/29 10:03:57;;;;;;;3.20;1.65;;;;;;;32.04;14.20;99583.84;5066459;28;20445;-90
2021/03/29 10:06:28;;;;;;;4.55;1.33;;;;;;;32.01;14.12;99579.88;5061007;28;20392;-91
2021/03/29 10:09:00;;;;;;;2.45;1.30;;;;;;;32.55;13.64;99587.50;5068180;28;20028;-91
2021/03/29 10:11:41;;;;;;;2.30;0.95;;;;;;;32.87;13.28;99573.00;5064498;28;20487;-92
2021/03/29 10:14:07;;;;;;;2.55;1.00;;;;;;;32.78;12.78;99570.06;5068140;28;20037;-92
2021/03/29 10:16:42;;;;;;;1.35;0.80;;;;;;;32.84;13.00;99573.13;5070513;28;20051;-92
2021/03/29 10:19:18;;;;;;;2.88;1.00;;;;;;;32.73;13.43;99562.91;5041717;28;20039;-92
2021/03/29 10:22:11;;;;;;;2.05;1.23;;;;;;;32.69;12.28;99562.25;5063893;28;20021;-91
2021/03/29 10:24:57;;;;;;;0.82;0.75;;;;;;;32.93;13.27;99556.16;5058813;28;20065;-91
2021/03/29 10:27:25;;;;;;;2.30;1.27;;;;;;;33.12;12.53;99552.22;5060124;28;20116;-91
2021/03/29 10:29:51;;;;;;;4.03;1.80;;;;;;;33.10;13.06;99552.69;5059958;28;20496;-92
2021/03/29 10:32:20;;;;;;;1.80;1.35;;;;;;;33.34;12.51;99556.69;5062812;28;20028;-96
2021/03/29 10:34:48;;;;;;;2.95;1.05;;;;;;;31.32;13.93;99561.56;5066204;28;20479;-91
2021/03/29 10:37:24;;;;;;;1.80;1.10;;;;;;;30.96;13.91;99554.47;5062293;28;20037;-92
2021/03/29 10:39:55;;;;;;;3.83;1.30;;;;;;;30.90;14.41;99550.59;5057385;28;20053;-92
2021/03/29 10:42:24;;;;;;;4.30;1.15;;;;;;;31.36;14.51;99553.75;5042911;28;20407;-92
2021/03/29 10:44:51;;;;;;;5.07;1.92;;;;;;;31.77;13.11;99550.13;5062369;28;20492;-92
2021/03/29 10:47:18;;;;;;;7.80;1.58;;;;;;;31.97;13.12;99549.97;5064346;28;20056;-92
2021/03/29 10:49:44;;;;;;;2.78;1.00;;;;;;;32.38;13.31;99540.50;5065768;28;20032;-92
2021/03/29 10:52:11;;;;;;;3.47;1.20;;;;;;;31.28;14.12;99548.72;5063573;28;20064;-90
2021/03/29 10:54:38;;;;;;;3.22;1.10;;;;;;;28.84;15.85;99550.66;5058309;28;20021;-90
2021/03/29 10:57:05;;;;;;;2.75;1.33;;;;;;;29.13;14.42;99548.06;5049452;28;20062;-92
2021/03/29 10:59:32;;;;;;;3.03;1.10;;;;;;;29.83;14.90;99545.84;5059260;28;20017;-89
2021/03/29 11:01:59;;;;;;;2.70;1.30;;;;;;;30.89;14.22;99540.47;5045433;28;20033;-91
2021/03/29 11:04:26;;;;;;;5.85;1.40;;;;;;;31.55;12.90;99532.16;5062091;28;20492;-91
2021/03/29 11:06:52;;;;;;;2.55;1.30;;;;;;;32.29;12.84;99537.56;5065300;28;20036;-92
2021/03/29 11:09:18;;;;;;;2.97;1.10;;;;;;;32.43;12.88;99537.91;5058214;28;20025;-94
2021/03/29 11:11:44;;;;;;;3.47;1.60;;;;;;;32.19;12.73;99544.38;5061068;28;20048;-93
2021/03/29 11:14:11;;;;;;;2.58;1.10;;;;;;;31.04;14.33;99536.03;5059621;28;20029;-92
2021/03/29 11:16:37;;;;;;;2.47;1.05;;;;;;;30.76;14.95;99538.34;5036094;28;20037;-93
2021/03/29 11:19:04;;;;;;;3.55;1.17;;;;;;;31.64;13.40;99531.47;5053108;28;20028;-93
2021/03/29 11:21:32;;;;;;;2.72;1.27;;;;;;;31.44;14.19;99540.16;5060281;28;20036;-91
2021/03/29 11:23:58;;;;;;;2.97;1.50;;;;;;;31.56;13.12;99532.91;5062232;28;20033;-94
2021/03/29 11:26:29;;;;;;;1.92;0.82;;;;;;;31.86;13.72;99532.41;5053011;28;20404;-94
2021/03/29 11:28:55;;;;;;;3.75;0.90;;;;;;;30.26;13.40;99545.69;5042355;28;20043;-92
2021/03/29 11:31:24;;;;;;;2.22;0.85;;;;;;;29.16;15.58;99536.69;5045874;28;20041;-90
2021/03/29 11:33:53;;;;;;;2.60;1.23;;;;;;;30.89;14.53;99531.97;5063199;28;20036;-90
2021/03/29 11:36:19;;;;;;;3.08;1.50;;;;;;;30.19;13.84;99535.31;5059454;28;20032;-92
2021/03/29 11:38:47;;;;;;;2.70;0.90;;;;;;;31.08;13.49;99534.69;5043252;28;20047;-90
2021/03/29 11:41:14;;;;;;;4.53;1.30;;;;;;;31.95;13.29;99532.56;5061699;28;20401;-92
2021/03/29 11:43:41;;;;;;;2.03;1.17;;;;;;;31.84;12.39;99532.06;5066752;28;20025;-91
2021/03/29 11:46:07;;;;;;;2.65;1.10;;;;;;;31.22;13.86;99539.16;5049907;28;20032;-92
2021/03/29 11:48:33;;;;;;;5.25;1.20;;;;;;;29.42;14.68;99540.66;5047798;28;20044;-91